sensor_id;sensor_type;location;lat;lon;timestamp;pressure;altitude;pressure_sealevel;temperature;humidity
33422;BME280;19763;55.798;37.782;2023-02-01T00:02:00;147747.00;;;1.69;87.66
33422;BME280;19763;55.798;37.782;2023-02-01T00:04:26;147724.09;;;1.60;87.26
33422;BME280;19763;55.798;37.782;2023-02-01T00:06:52;147693.53;;;1.48;87.28
33422;BME280;19763;55.798;37.782;2023-02-01T00:09:17;147717.72;;;1.58;87.05
33422;BME280;19763;55.798;37.782;2023-02-01T00:11:43;147722.84;;;1.60;86.59
33422;BME280;19763;55.798;37.782;2023-02-01T00:14:09;147735.56;;;1.65;86.56
33422;BME280;19763;55.798;37.782;2023-02-01T00:16:35;147740.69;;;1.67;86.50
33422;BME280;19763;55.798;37.782;2023-02-01T00:19:10;147720.28;;;1.59;86.42
33422;BME280;19763;55.798;37.782;2023-02-01T00:21:36;147745.75;;;1.69;85.81
33422;BME280;19763;55.798;37.782;2023-02-01T00:24:02;147750.81;;;1.71;85.88
33422;BME280;19763;55.798;37.782;2023-02-01T00:26:34;147733.00;;;1.64;85.83
33422;BME280;19763;55.798;37.782;2023-02-01T00:29:02;147745.75;;;1.69;86.42
33422;BME280;19763;55.798;37.782;2023-02-01T00:31:28;147727.91;;;1.62;86.20
33422;BME280;19763;55.798;37.782;2023-02-01T00:33:54;147739.38;;;1.66;85.74
33422;BME280;19763;55.798;37.782;2023-02-01T00:36:20;147758.50;;;1.74;86.09
33422;BME280;19763;55.798;37.782;2023-02-01T00:38:45;147740.69;;;1.67;86.08
33422;BME280;19763;55.798;37.782;2023-02-01T00:41:14;147699.91;;;1.50;86.15
33422;BME280;19763;55.798;37.782;2023-02-01T00:43:40;147725.38;;;1.61;85.71
33422;BME280;19763;55.798;37.782;2023-02-01T00:46:06;147766.13;;;1.77;86.09
33422;BME280;19763;55.798;37.782;2023-02-01T00:48:32;147747.00;;;1.69;85.53
33422;BME280;19763;55.798;37.782;2023-02-01T00:51:02;147735.56;;;1.65;86.05
33422;BME280;19763;55.798;37.782;2023-02-01T00:53:28;147735.56;;;1.65;86.00
33422;BME280;19763;55.798;37.782;2023-02-01T00:55:54;147722.84;;;1.60;85.88
33422;BME280;19763;55.798;37.782;2023-02-01T00:58:20;147698.66;;;1.50;85.96
33422;BME280;19763;55.798;37.782;2023-02-01T01:00:45;147731.75;;;1.63;85.94
33422;BME280;19763;55.798;37.782;2023-02-01T01:03:12;147749.56;;;1.70;85.46
33422;BME280;19763;55.798;37.782;2023-02-01T01:05:45;147698.66;;;1.50;85.91
33422;BME280;19763;55.798;37.782;2023-02-01T01:08:10;147697.34;;;1.49;85.79
33422;BME280;19763;55.798;37.782;2023-02-01T01:10:36;147740.69;;;1.67;85.59
33422;BME280;19763;55.798;37.782;2023-02-01T01:13:01;147725.38;;;1.61;85.35
33422;BME280;19763;55.798;37.782;2023-02-01T01:15:27;147736.81;;;1.65;85.21
33422;BME280;19763;55.798;37.782;2023-02-01T01:17:52;147753.38;;;1.72;84.89
33422;BME280;19763;55.798;37.782;2023-02-01T01:20:18;147747.00;;;1.69;84.75
33422;BME280;19763;55.798;37.782;2023-02-01T01:22:47;147781.41;;;1.83;84.46
33422;BME280;19763;55.798;37.782;2023-02-01T01:25:13;147743.19;;;1.68;84.51
33422;BME280;19763;55.798;37.782;2023-02-01T01:27:38;147773.75;;;1.80;84.13
33422;BME280;19763;55.798;37.782;2023-02-01T01:30:04;147759.75;;;1.75;84.25
33422;BME280;19763;55.798;37.782;2023-02-01T01:32:30;147725.38;;;1.61;84.74
33422;BME280;19763;55.798;37.782;2023-02-01T01:34:56;147730.47;;;1.63;85.13
33422;BME280;19763;55.798;37.782;2023-02-01T01:37:21;147748.31;;;1.70;84.71
33422;BME280;19763;55.798;37.782;2023-02-01T01:39:47;147741.94;;;1.67;84.93
33422;BME280;19763;55.798;37.782;2023-02-01T01:42:12;147750.81;;;1.71;84.43
33422;BME280;19763;55.798;37.782;2023-02-01T01:47:22;147741.94;;;1.67;84.35
33422;BME280;19763;55.798;37.782;2023-02-01T01:49:47;147781.41;;;1.83;84.12
33422;BME280;19763;55.798;37.782;2023-02-01T01:52:13;147775.03;;;1.81;83.71
33422;BME280;19763;55.798;37.782;2023-02-01T01:54:45;147761.00;;;1.75;84.18
33422;BME280;19763;55.798;37.782;2023-02-01T01:57:19;147725.38;;;1.61;84.08
33422;BME280;19763;55.798;37.782;2023-02-01T01:59:52;147729.19;;;1.62;84.54
33422;BME280;19763;55.798;37.782;2023-02-01T02:02:18;147740.69;;;1.67;84.60
33422;BME280;19763;55.798;37.782;2023-02-01T02:04:44;147739.38;;;1.66;84.28
33422;BME280;19763;55.798;37.782;2023-02-01T02:07:16;147722.84;;;1.60;84.11
33422;BME280;19763;55.798;37.782;2023-02-01T02:09:43;147743.19;;;1.68;83.98
33422;BME280;19763;55.798;37.782;2023-02-01T02:12:09;147745.75;;;1.69;84.32
33422;BME280;19763;55.798;37.782;2023-02-01T02:14:35;147750.81;;;1.71;84.43
33422;BME280;19763;55.798;37.782;2023-02-01T02:28:13;147726.66;;;1.61;84.55
33422;BME280;19763;55.798;37.782;2023-02-01T02:36:21;147725.38;;;1.61;84.37
33422;BME280;19763;55.798;37.782;2023-02-01T02:39:50;147747.00;;;1.69;84.32
33422;BME280;19763;55.798;37.782;2023-02-01T02:44:54;147702.47;;;1.51;84.63
33422;BME280;19763;55.798;37.782;2023-02-01T02:50:34;147680.84;;;1.43;84.29
33422;BME280;19763;55.798;37.782;2023-02-01T02:56:26;147725.38;;;1.61;84.28
33422;BME280;19763;55.798;37.782;2023-02-01T02:59:13;147722.84;;;1.60;83.99
33422;BME280;19763;55.798;37.782;2023-02-01T03:01:58;147758.50;;;1.74;84.16
33422;BME280;19763;55.798;37.782;2023-02-01T03:04:42;147752.13;;;1.71;83.33
33422;BME280;19763;55.798;37.782;2023-02-01T03:07:49;147767.38;;;1.78;83.24
33422;BME280;19763;55.798;37.782;2023-02-01T03:12:46;147757.19;;;1.73;83.58
33422;BME280;19763;55.798;37.782;2023-02-01T03:15:31;147745.75;;;1.69;83.24
33422;BME280;19763;55.798;37.782;2023-02-01T03:17:58;147704.97;;;1.52;83.61
33422;BME280;19763;55.798;37.782;2023-02-01T03:20:27;147744.50;;;1.68;83.76
33422;BME280;19763;55.798;37.782;2023-02-01T03:22:55;147750.81;;;1.71;83.40
33422;BME280;19763;55.798;37.782;2023-02-01T03:25:28;147726.66;;;1.61;83.53
33422;BME280;19763;55.798;37.782;2023-02-01T03:28:04;147722.84;;;1.60;83.33
33422;BME280;19763;55.798;37.782;2023-02-01T03:30:36;147767.38;;;1.78;83.40
33422;BME280;19763;55.798;37.782;2023-02-01T03:33:05;147731.75;;;1.63;83.41
33422;BME280;19763;55.798;37.782;2023-02-01T03:44:35;147747.00;;;1.69;84.12
33422;BME280;19763;55.798;37.782;2023-02-01T03:49:38;147743.19;;;1.68;84.25
33422;BME280;19763;55.798;37.782;2023-02-01T03:52:07;147767.38;;;1.78;83.95
33422;BME280;19763;55.798;37.782;2023-02-01T03:54:34;147789.03;;;1.86;83.59
33422;BME280;19763;55.798;37.782;2023-02-01T03:57:05;147775.03;;;1.81;83.62
33422;BME280;19763;55.798;37.782;2023-02-01T03:59:33;147775.03;;;1.81;83.52
33422;BME280;19763;55.798;37.782;2023-02-01T04:01:58;147764.81;;;1.77;83.60
33422;BME280;19763;55.798;37.782;2023-02-01T04:04:24;147749.56;;;1.70;83.74
33422;BME280;19763;55.798;37.782;2023-02-01T04:06:50;147739.38;;;1.66;83.97
33422;BME280;19763;55.798;37.782;2023-02-01T04:09:16;147766.13;;;1.77;84.03
33422;BME280;19763;55.798;37.782;2023-02-01T04:11:42;147787.78;;;1.86;83.88
33422;BME280;19763;55.798;37.782;2023-02-01T04:14:08;147780.13;;;1.83;83.70
33422;BME280;19763;55.798;37.782;2023-02-01T04:16:34;147777.56;;;1.82;83.44
33422;BME280;19763;55.798;37.782;2023-02-01T04:19:00;147780.13;;;1.83;83.33
33422;BME280;19763;55.798;37.782;2023-02-01T04:21:26;147781.41;;;1.83;84.01
33422;BME280;19763;55.798;37.782;2023-02-01T04:23:52;147778.84;;;1.82;84.30
33422;BME280;19763;55.798;37.782;2023-02-01T04:26:18;147744.50;;;1.68;84.40
33422;BME280;19763;55.798;37.782;2023-02-01T04:28:45;147768.69;;;1.78;83.95
33422;BME280;19763;55.798;37.782;2023-02-01T04:31:13;147778.84;;;1.82;83.94
33422;BME280;19763;55.798;37.782;2023-02-01T04:33:39;147749.56;;;1.70;84.60
33422;BME280;19763;55.798;37.782;2023-02-01T04:36:04;147738.13;;;1.66;84.63
33422;BME280;19763;55.798;37.782;2023-02-01T04:38:30;147772.50;;;1.80;84.26
33422;BME280;19763;55.798;37.782;2023-02-01T04:40:57;147772.50;;;1.80;84.53
33422;BME280;19763;55.798;37.782;2023-02-01T04:43:23;147791.59;;;1.87;83.97
33422;BME280;19763;55.798;37.782;2023-02-01T04:45:49;147747.00;;;1.69;84.67
33422;BME280;19763;55.798;37.782;2023-02-01T04:48:16;147752.13;;;1.71;84.46
33422;BME280;19763;55.798;37.782;2023-02-01T04:50:43;147753.38;;;1.72;84.66
33422;BME280;19763;55.798;37.782;2023-02-01T04:53:11;147731.75;;;1.63;84.72
33422;BME280;19763;55.798;37.782;2023-02-01T04:55:36;147724.09;;;1.60;84.94
33422;BME280;19763;55.798;37.782;2023-02-01T04:58:02;147743.19;;;1.68;84.64
33422;BME280;19763;55.798;37.782;2023-02-01T05:00:27;147755.94;;;1.73;84.80
33422;BME280;19763;55.798;37.782;2023-02-01T05:02:53;147763.56;;;1.76;84.49
33422;BME280;19763;55.798;37.782;2023-02-01T05:05:19;147757.19;;;1.73;84.23
33422;BME280;19763;55.798;37.782;2023-02-01T05:07:45;147750.81;;;1.71;84.08
33422;BME280;19763;55.798;37.782;2023-02-01T05:10:11;147757.19;;;1.73;83.97
33422;BME280;19763;55.798;37.782;2023-02-01T05:12:38;147753.38;;;1.72;84.00
33422;BME280;19763;55.798;37.782;2023-02-01T05:15:22;147775.03;;;1.81;84.33
33422;BME280;19763;55.798;37.782;2023-02-01T05:17:47;147809.41;;;1.95;83.60
33422;BME280;19763;55.798;37.782;2023-02-01T05:20:13;147777.56;;;1.82;83.35
33422;BME280;19763;55.798;37.782;2023-02-01T05:22:38;147780.13;;;1.83;83.37
33422;BME280;19763;55.798;37.782;2023-02-01T05:25:04;147768.69;;;1.78;83.69
33422;BME280;19763;55.798;37.782;2023-02-01T05:27:30;147762.31;;;1.76;83.84
33422;BME280;19763;55.798;37.782;2023-02-01T05:29:56;147762.31;;;1.76;84.34
33422;BME280;19763;55.798;37.782;2023-02-01T05:32:22;147743.19;;;1.68;84.64
33422;BME280;19763;55.798;37.782;2023-02-01T05:34:47;147727.91;;;1.62;84.77
33422;BME280;19763;55.798;37.782;2023-02-01T05:37:13;147773.75;;;1.80;84.19
33422;BME280;19763;55.798;37.782;2023-02-01T05:39:38;147777.56;;;1.82;84.40
33422;BME280;19763;55.798;37.782;2023-02-01T05:42:04;147753.38;;;1.72;84.66
33422;BME280;19763;55.798;37.782;2023-02-01T05:44:29;147727.91;;;1.62;84.45
33422;BME280;19763;55.798;37.782;2023-02-01T05:46:55;147778.84;;;1.82;84.18
33422;BME280;19763;55.798;37.782;2023-02-01T05:49:20;147767.38;;;1.78;83.84
33422;BME280;19763;55.798;37.782;2023-02-01T05:51:46;147797.97;;;1.90;84.34
33422;BME280;19763;55.798;37.782;2023-02-01T05:54:12;147750.81;;;1.71;84.35
33422;BME280;19763;55.798;37.782;2023-02-01T05:56:37;147711.34;;;1.55;84.89
33422;BME280;19763;55.798;37.782;2023-02-01T05:59:03;147766.13;;;1.77;85.07
33422;BME280;19763;55.798;37.782;2023-02-01T06:01:29;147764.81;;;1.77;84.48
33422;BME280;19763;55.798;37.782;2023-02-01T06:03:54;147731.75;;;1.63;84.46
33422;BME280;19763;55.798;37.782;2023-02-01T06:06:20;147738.13;;;1.66;85.22
33422;BME280;19763;55.798;37.782;2023-02-01T06:08:45;147715.19;;;1.57;85.39
33422;BME280;19763;55.798;37.782;2023-02-01T06:11:11;147753.38;;;1.72;85.05
33422;BME280;19763;55.798;37.782;2023-02-01T06:13:38;147729.19;;;1.62;84.91
33422;BME280;19763;55.798;37.782;2023-02-01T06:16:04;147768.69;;;1.78;84.57
33422;BME280;19763;55.798;37.782;2023-02-01T06:18:33;147758.50;;;1.74;84.54
33422;BME280;19763;55.798;37.782;2023-02-01T06:20:59;147797.97;;;1.90;84.56
33422;BME280;19763;55.798;37.782;2023-02-01T06:23:26;147800.53;;;1.91;84.14
33422;BME280;19763;55.798;37.782;2023-02-01T06:25:52;147720.28;;;1.59;85.58
33422;BME280;19763;55.798;37.782;2023-02-01T06:28:18;147715.19;;;1.57;84.51
33422;BME280;19763;55.798;37.782;2023-02-01T06:30:44;147739.38;;;1.66;85.46
33422;BME280;19763;55.798;37.782;2023-02-01T06:33:14;147724.09;;;1.60;85.44
33422;BME280;19763;55.798;37.782;2023-02-01T06:35:43;147694.84;;;1.48;85.30
33422;BME280;19763;55.798;37.782;2023-02-01T06:38:13;147736.81;;;1.65;85.35
33422;BME280;19763;55.798;37.782;2023-02-01T06:40:39;147725.38;;;1.61;85.51
33422;BME280;19763;55.798;37.782;2023-02-01T06:43:07;147724.09;;;1.60;85.69
33422;BME280;19763;55.798;37.782;2023-02-01T06:45:33;147697.34;;;1.49;85.70
33422;BME280;19763;55.798;37.782;2023-02-01T06:47:59;147715.19;;;1.57;85.63
33422;BME280;19763;55.798;37.782;2023-02-01T06:50:26;147699.91;;;1.50;85.98
33422;BME280;19763;55.798;37.782;2023-02-01T06:52:52;147712.66;;;1.55;85.38
33422;BME280;19763;55.798;37.782;2023-02-01T06:55:17;147731.75;;;1.63;85.31
33422;BME280;19763;55.798;37.782;2023-02-01T06:57:43;147766.13;;;1.77;84.95
33422;BME280;19763;55.798;37.782;2023-02-01T07:00:09;147790.31;;;1.87;84.88
33422;BME280;19763;55.798;37.782;2023-02-01T07:02:34;147819.59;;;1.99;84.60
33422;BME280;19763;55.798;37.782;2023-02-01T07:05:00;147759.75;;;1.75;84.28
33422;BME280;19763;55.798;37.782;2023-02-01T07:07:25;147740.69;;;1.67;84.97
33422;BME280;19763;55.798;37.782;2023-02-01T07:09:51;147766.13;;;1.77;84.62
33422;BME280;19763;55.798;37.782;2023-02-01T07:12:19;147727.91;;;1.62;84.60
33422;BME280;19763;55.798;37.782;2023-02-01T07:14:44;147761.00;;;1.75;84.91
33422;BME280;19763;55.798;37.782;2023-02-01T07:17:10;147735.56;;;1.65;84.97
33422;BME280;19763;55.798;37.782;2023-02-01T07:19:35;147696.09;;;1.49;85.55
33422;BME280;19763;55.798;37.782;2023-02-01T07:22:01;147699.91;;;1.50;85.51
33422;BME280;19763;55.798;37.782;2023-02-01T07:24:26;147708.84;;;1.54;85.71
33422;BME280;19763;55.798;37.782;2023-02-01T07:26:52;147755.94;;;1.73;85.21
33422;BME280;19763;55.798;37.782;2023-02-01T07:29:18;147782.66;;;1.84;85.04
33422;BME280;19763;55.798;37.782;2023-02-01T07:31:44;147772.50;;;1.80;84.42
33422;BME280;19763;55.798;37.782;2023-02-01T07:34:10;147722.84;;;1.60;84.86
33422;BME280;19763;55.798;37.782;2023-02-01T07:36:35;147789.03;;;1.86;84.92
33422;BME280;19763;55.798;37.782;2023-02-01T07:39:02;147771.19;;;1.79;83.88
33422;BME280;19763;55.798;37.782;2023-02-01T07:41:28;147815.78;;;1.97;83.91
33422;BME280;19763;55.798;37.782;2023-02-01T07:43:54;147818.34;;;1.98;84.22
33422;BME280;19763;55.798;37.782;2023-02-01T07:46:20;147743.19;;;1.68;83.71
33422;BME280;19763;55.798;37.782;2023-02-01T07:48:46;147740.69;;;1.67;84.07
33422;BME280;19763;55.798;37.782;2023-02-01T07:51:13;147766.13;;;1.77;83.80
33422;BME280;19763;55.798;37.782;2023-02-01T07:53:40;147749.56;;;1.70;83.62
33422;BME280;19763;55.798;37.782;2023-02-01T07:56:17;147727.91;;;1.62;84.07
33422;BME280;19763;55.798;37.782;2023-02-01T07:58:43;147777.56;;;1.82;84.12
33422;BME280;19763;55.798;37.782;2023-02-01T08:01:23;147749.56;;;1.70;83.58
33422;BME280;19763;55.798;37.782;2023-02-01T08:04:00;147786.50;;;1.85;83.38
33422;BME280;19763;55.798;37.782;2023-02-01T08:06:28;147767.38;;;1.78;83.25
33422;BME280;19763;55.798;37.782;2023-02-01T08:08:54;147799.22;;;1.90;83.00
33422;BME280;19763;55.798;37.782;2023-02-01T08:11:21;147823.41;;;2.00;83.27
33422;BME280;19763;55.798;37.782;2023-02-01T08:13:47;147814.53;;;1.97;82.85
33422;BME280;19763;55.798;37.782;2023-02-01T08:16:15;147803.03;;;1.92;83.23
33422;BME280;19763;55.798;37.782;2023-02-01T08:18:41;147780.13;;;1.83;83.41
33422;BME280;19763;55.798;37.782;2023-02-01T08:21:14;147748.31;;;1.70;83.42
33422;BME280;19763;55.798;37.782;2023-02-01T08:23:41;147762.31;;;1.76;83.88
33422;BME280;19763;55.798;37.782;2023-02-01T08:26:18;147743.19;;;1.68;83.98
33422;BME280;19763;55.798;37.782;2023-02-01T08:28:46;147730.47;;;1.63;83.29
33422;BME280;19763;55.798;37.782;2023-02-01T08:31:14;147773.75;;;1.80;83.02
33422;BME280;19763;55.798;37.782;2023-02-01T08:33:41;147794.16;;;1.88;82.98
33422;BME280;19763;55.798;37.782;2023-02-01T08:36:09;147771.19;;;1.79;83.28
33422;BME280;19763;55.798;37.782;2023-02-01T08:38:36;147755.94;;;1.73;83.43
33422;BME280;19763;55.798;37.782;2023-02-01T08:41:09;147710.09;;;1.54;83.57
33422;BME280;19763;55.798;37.782;2023-02-01T08:43:35;147729.19;;;1.62;83.57
33422;BME280;19763;55.798;37.782;2023-02-01T08:46:01;147731.75;;;1.63;82.91
33422;BME280;19763;55.798;37.782;2023-02-01T08:48:27;147766.13;;;1.77;82.99
33422;BME280;19763;55.798;37.782;2023-02-01T08:50:53;147772.50;;;1.80;82.62
33422;BME280;19763;55.798;37.782;2023-02-01T08:53:18;147727.91;;;1.62;82.26
33422;BME280;19763;55.798;37.782;2023-02-01T08:55:46;147771.19;;;1.79;82.09
33422;BME280;19763;55.798;37.782;2023-02-01T08:58:12;147749.56;;;1.70;81.66
33422;BME280;19763;55.798;37.782;2023-02-01T09:00:39;147804.34;;;1.93;82.10
33422;BME280;19763;55.798;37.782;2023-02-01T09:03:05;147820.84;;;1.99;80.59
33422;BME280;19763;55.798;37.782;2023-02-01T09:05:31;147804.34;;;1.93;80.76
33422;BME280;19763;55.798;37.782;2023-02-01T09:07:56;147837.44;;;2.06;80.29
33422;BME280;19763;55.798;37.782;2023-02-01T09:10:22;147791.59;;;1.87;80.70
33422;BME280;19763;55.798;37.782;2023-02-01T09:12:48;147842.50;;;2.08;80.60
33422;BME280;19763;55.798;37.782;2023-02-01T09:15:13;147862.91;;;2.16;80.72
33422;BME280;19763;55.798;37.782;2023-02-01T09:17:39;147836.19;;;2.05;80.22
33422;BME280;19763;55.798;37.782;2023-02-01T09:20:07;147847.63;;;2.10;80.42
33422;BME280;19763;55.798;37.782;2023-02-01T09:22:32;147791.59;;;1.87;80.49
33422;BME280;19763;55.798;37.782;2023-02-01T09:24:58;147794.16;;;1.88;80.43
33422;BME280;19763;55.798;37.782;2023-02-01T09:27:23;147782.66;;;1.84;80.08
33422;BME280;19763;55.798;37.782;2023-02-01T09:29:49;147776.31;;;1.81;80.40
33422;BME280;19763;55.798;37.782;2023-02-01T09:32:21;147822.16;;;2.00;80.48
33422;BME280;19763;55.798;37.782;2023-02-01T09:34:48;147829.78;;;2.03;79.84
33422;BME280;19763;55.798;37.782;2023-02-01T09:37:13;147789.03;;;1.86;79.98
33422;BME280;19763;55.798;37.782;2023-02-01T09:39:39;147799.22;;;1.90;81.11
33422;BME280;19763;55.798;37.782;2023-02-01T09:47:51;147795.41;;;1.89;79.96
33422;BME280;19763;55.798;37.782;2023-02-01T09:50:21;147825.97;;;2.01;80.41
33422;BME280;19763;55.798;37.782;2023-02-01T09:52:55;147851.44;;;2.12;79.78
33422;BME280;19763;55.798;37.782;2023-02-01T09:55:49;147855.25;;;2.13;79.81
33422;BME280;19763;55.798;37.782;2023-02-01T09:58:46;147854.00;;;2.13;80.18
33422;BME280;19763;55.798;37.782;2023-02-01T10:01:24;147771.19;;;1.79;81.11
33422;BME280;19763;55.798;37.782;2023-02-01T10:04:01;147808.16;;;1.94;80.75
33422;BME280;19763;55.798;37.782;2023-02-01T10:09:32;147674.47;;;1.40;82.19
33422;BME280;19763;55.798;37.782;2023-02-01T10:18:00;147738.13;;;1.66;81.14
33422;BME280;19763;55.798;37.782;2023-02-01T10:25:57;147666.84;;;1.37;81.65
33422;BME280;19763;55.798;37.782;2023-02-01T10:28:25;147690.97;;;1.47;82.27
33422;BME280;19763;55.798;37.782;2023-02-01T10:30:54;147654.09;;;1.32;81.97
33422;BME280;19763;55.798;37.782;2023-02-01T10:33:25;147727.91;;;1.62;81.65
33422;BME280;19763;55.798;37.782;2023-02-01T10:36:05;147706.28;;;1.53;81.44
33422;BME280;19763;55.798;37.782;2023-02-01T10:38:36;147688.47;;;1.46;81.69
33422;BME280;19763;55.798;37.782;2023-02-01T10:41:15;147731.75;;;1.63;81.96
33422;BME280;19763;55.798;37.782;2023-02-01T10:43:42;147720.28;;;1.59;82.42
33422;BME280;19763;55.798;37.782;2023-02-01T10:46:08;147701.16;;;1.51;82.81
33422;BME280;19763;55.798;37.782;2023-02-01T10:48:35;147717.72;;;1.58;82.65
33422;BME280;19763;55.798;37.782;2023-02-01T10:51:06;147761.00;;;1.75;82.29
33422;BME280;19763;55.798;37.782;2023-02-01T10:53:41;147729.19;;;1.62;81.69
33422;BME280;19763;55.798;37.782;2023-02-01T10:56:09;147747.00;;;1.69;81.75
33422;BME280;19763;55.798;37.782;2023-02-01T10:58:43;147752.13;;;1.71;81.20
33422;BME280;19763;55.798;37.782;2023-02-01T11:01:16;147749.56;;;1.70;81.11
33422;BME280;19763;55.798;37.782;2023-02-01T11:03:57;147733.00;;;1.64;80.95
33422;BME280;19763;55.798;37.782;2023-02-01T11:06:33;147749.56;;;1.70;80.95
33422;BME280;19763;55.798;37.782;2023-02-01T11:09:21;147725.38;;;1.61;81.22
33422;BME280;19763;55.798;37.782;2023-02-01T11:14:19;147722.84;;;1.60;81.44
33422;BME280;19763;55.798;37.782;2023-02-01T11:16:49;147748.31;;;1.70;80.90
33422;BME280;19763;55.798;37.782;2023-02-01T11:19:16;147757.19;;;1.73;80.65
33422;BME280;19763;55.798;37.782;2023-02-01T11:21:43;147740.69;;;1.67;80.82
33422;BME280;19763;55.798;37.782;2023-02-01T11:24:38;147744.50;;;1.68;81.38
33422;BME280;19763;55.798;37.782;2023-02-01T11:27:15;147759.75;;;1.75;80.73
33422;BME280;19763;55.798;37.782;2023-02-01T11:29:44;147712.66;;;1.55;80.34
33422;BME280;19763;55.798;37.782;2023-02-01T11:32:13;147702.47;;;1.51;81.25
33422;BME280;19763;55.798;37.782;2023-02-01T11:34:44;147743.19;;;1.68;81.59
33422;BME280;19763;55.798;37.782;2023-02-01T11:39:57;147777.56;;;1.82;81.53
33422;BME280;19763;55.798;37.782;2023-02-01T11:42:23;147740.69;;;1.67;81.68
33422;BME280;19763;55.798;37.782;2023-02-01T11:44:49;147734.28;;;1.64;81.41
33422;BME280;19763;55.798;37.782;2023-02-01T11:47:29;147683.34;;;1.44;81.59
33422;BME280;19763;55.798;37.782;2023-02-01T11:50:12;147692.28;;;1.47;80.60
33422;BME280;19763;55.798;37.782;2023-02-01T11:58:45;147722.84;;;1.60;81.73
33422;BME280;19763;55.798;37.782;2023-02-01T12:04:52;147736.81;;;1.65;81.22
33422;BME280;19763;55.798;37.782;2023-02-01T12:10:05;147671.91;;;1.39;81.37
33422;BME280;19763;55.798;37.782;2023-02-01T12:12:57;147773.75;;;1.80;80.85
33422;BME280;19763;55.798;37.782;2023-02-01T12:16:17;147752.13;;;1.71;80.30
33422;BME280;19763;55.798;37.782;2023-02-01T12:18:41;147721.56;;;1.59;80.63
33422;BME280;19763;55.798;37.782;2023-02-01T12:21:22;147699.91;;;1.50;80.70
33422;BME280;19763;55.798;37.782;2023-02-01T12:43:23;147702.47;;;1.51;79.58
33422;BME280;19763;55.798;37.782;2023-02-01T12:46:26;147710.09;;;1.54;79.65
33422;BME280;19763;55.798;37.782;2023-02-01T12:49:00;147753.38;;;1.72;79.72
33422;BME280;19763;55.798;37.782;2023-02-01T12:51:37;147776.31;;;1.81;78.64
33422;BME280;19763;55.798;37.782;2023-02-01T12:54:27;147762.31;;;1.76;78.60
33422;BME280;19763;55.798;37.782;2023-02-01T12:57:01;147758.50;;;1.74;78.08
33422;BME280;19763;55.798;37.782;2023-02-01T12:59:44;147730.47;;;1.63;77.33
33422;BME280;19763;55.798;37.782;2023-02-01T13:02:15;147703.72;;;1.52;77.61
33422;BME280;19763;55.798;37.782;2023-02-01T13:07:43;147655.34;;;1.32;78.13
33422;BME280;19763;55.798;37.782;2023-02-01T13:13:12;147730.47;;;1.63;78.23
33422;BME280;19763;55.798;37.782;2023-02-01T13:15:44;147678.28;;;1.42;78.66
33422;BME280;19763;55.798;37.782;2023-02-01T13:18:16;147704.97;;;1.52;78.62
33422;BME280;19763;55.798;37.782;2023-02-01T13:21:16;147747.00;;;1.69;78.70
33422;BME280;19763;55.798;37.782;2023-02-01T13:23:46;147736.81;;;1.65;77.84
33422;BME280;19763;55.798;37.782;2023-02-01T13:26:12;147766.13;;;1.77;77.89
33422;BME280;19763;55.798;37.782;2023-02-01T13:28:46;147759.75;;;1.75;77.90
33422;BME280;19763;55.798;37.782;2023-02-01T13:31:44;147782.66;;;1.84;77.47
33422;BME280;19763;55.798;37.782;2023-02-01T13:37:47;147759.75;;;1.75;77.79
33422;BME280;19763;55.798;37.782;2023-02-01T13:42:26;147771.19;;;1.79;78.48
33422;BME280;19763;55.798;37.782;2023-02-01T13:45:05;147735.56;;;1.65;77.55
33422;BME280;19763;55.798;37.782;2023-02-01T13:47:41;147720.28;;;1.59;78.54
33422;BME280;19763;55.798;37.782;2023-02-01T13:50:34;147725.38;;;1.61;78.39
33422;BME280;19763;55.798;37.782;2023-02-01T13:56:04;147743.19;;;1.68;77.72
33422;BME280;19763;55.798;37.782;2023-02-01T13:58:36;147748.31;;;1.70;77.75
33422;BME280;19763;55.798;37.782;2023-02-01T14:03:55;147722.84;;;1.60;78.07
33422;BME280;19763;55.798;37.782;2023-02-01T14:19:32;147684.66;;;1.44;78.08
33422;BME280;19763;55.798;37.782;2023-02-01T14:24:55;147646.47;;;1.29;78.08
33422;BME280;19763;55.798;37.782;2023-02-01T14:27:27;147647.72;;;1.29;78.70
33422;BME280;19763;55.798;37.782;2023-02-01T14:29:57;147697.34;;;1.49;78.23
33422;BME280;19763;55.798;37.782;2023-02-01T14:32:30;147663.03;;;1.35;77.84
33422;BME280;19763;55.798;37.782;2023-02-01T14:34:59;147632.47;;;1.23;77.68
33422;BME280;19763;55.798;37.782;2023-02-01T14:37:28;147704.97;;;1.52;77.56
33422;BME280;19763;55.798;37.782;2023-02-01T14:39:57;147719.00;;;1.58;77.93
33422;BME280;19763;55.798;37.782;2023-02-01T14:42:36;147707.53;;;1.53;77.59
33422;BME280;19763;55.798;37.782;2023-02-01T14:47:49;147680.84;;;1.43;78.01
33422;BME280;19763;55.798;37.782;2023-02-01T14:58:51;147618.47;;;1.17;78.67
33422;BME280;19763;55.798;37.782;2023-02-01T15:01:22;147585.34;;;1.04;78.93
33422;BME280;19763;55.798;37.782;2023-02-01T15:03:56;147576.47;;;1.00;78.46
33422;BME280;19763;55.798;37.782;2023-02-01T15:08:53;147629.91;;;1.22;78.09
33422;BME280;19763;55.798;37.782;2023-02-01T15:11:20;147649.03;;;1.30;77.40
33422;BME280;19763;55.798;37.782;2023-02-01T15:13:50;147572.66;;;0.99;78.21
33422;BME280;19763;55.798;37.782;2023-02-01T15:16:19;147608.28;;;1.13;78.10
33422;BME280;19763;55.798;37.782;2023-02-01T15:18:45;147580.28;;;1.02;78.71
33422;BME280;19763;55.798;37.782;2023-02-01T15:21:25;147571.41;;;0.98;78.48
33422;BME280;19763;55.798;37.782;2023-02-01T15:24:10;147543.41;;;0.87;78.66
33422;BME280;19763;55.798;37.782;2023-02-01T15:26:36;147595.53;;;1.08;78.67
33422;BME280;19763;55.798;37.782;2023-02-01T15:29:01;147608.28;;;1.13;78.02
33422;BME280;19763;55.798;37.782;2023-02-01T15:31:39;147599.34;;;1.10;78.33